Time,TemperatureF,DewpointF,PressureIn,WindDirection,WindDirectionDegrees,WindSpeedMPH,WindSpeedGustMPH,Humidity,HourlyPrecipIn,Conditions,Clouds,dailyrainin,SoftwareType,DateUTC
2013-01-08 00:00:00,26.0,22.7,30.22,South,191,1.0,7.0,87,0.00,,---,0.00,VWS V14.01,2013-01-08 06:00:00,
2013-01-08 00:03:00,26.1,22.8,30.23,WSW,255,0.0,9.0,87,0.00,,---,0.00,VWS V14.01,2013-01-08 06:03:00,
2013-01-08 00:08:00,26.1,22.8,30.23,SSW,207,0.0,9.0,87,0.00,,---,0.00,VWS V14.01,2013-01-08 06:08:00,
2013-01-08 00:13:00,26.1,22.8,30.23,WSW,242,6.0,9.0,87,0.00,,---,0.00,VWS V14.01,2013-01-08 06:13:00,
2013-01-08 00:18:00,26.2,22.9,30.23,SW,236,2.0,9.0,87,0.00,,---,0.00,VWS V14.01,2013-01-08 06:18:00,
2013-01-08 00:23:00,26.4,23.1,30.23,SW,222,2.0,9.0,87,0.00,,---,0.00,VWS V14.01,2013-01-08 06:23:00,
2013-01-08 00:28:00,26.6,23.0,30.23,SW,219,3.0,9.0,86,0.00,,---,0.00,VWS V14.01,2013-01-08 06:28:00,
2013-01-08 00:30:00,26.6,23.0,30.23,SW,233,3.0,9.0,86,0.00,,---,0.00,VWS V14.01,2013-01-08 06:30:00,
2013-01-08 00:33:00,26.6,23.0,30.23,SE,138,1.0,3.0,86,0.00,,---,0.00,VWS V14.01,2013-01-08 06:33:00,
2013-01-08 00:38:00,26.6,23.3,30.23,WSW,243,0.0,5.0,87,0.00,,---,0.00,VWS V14.01,2013-01-08 06:38:00,
2013-01-08 00:43:00,26.6,23.0,30.23,South,191,0.0,5.0,86,0.00,,---,0.00,VWS V14.01,2013-01-08 06:43:00,
2013-01-08 00:48:00,26.6,23.3,30.23,SE,131,0.0,5.0,87,0.00,,---,0.00,VWS V14.01,2013-01-08 06:48:00,
2013-01-08 00:53:00,26.5,22.9,30.24,SSW,212,0.0,5.0,86,0.00,,---,0.00,VWS V14.01,2013-01-08 06:53:00,
2013-01-08 00:58:00,26.3,22.7,30.24,SSW,197,0.0,5.0,86,0.00,,---,0.00,VWS V14.01,2013-01-08 06:58:00,
2013-01-08 01:00:00,26.3,22.7,30.24,SSW,197,0.0,5.0,86,0.00,,---,0.00,VWS V14.01,2013-01-08 07:00:00,
2013-01-08 01:03:00,26.1,22.8,30.24,SSW,203,2.0,4.0,87,0.00,,---,0.00,VWS V14.01,2013-01-08 07:03:00,
2013-01-08 01:08:00,25.9,22.3,30.24,South,188,2.0,4.0,86,0.00,,---,0.00,VWS V14.01,2013-01-08 07:08:00,
2013-01-08 01:13:00,26.0,22.7,30.24,SSW,207,1.0,5.0,87,0.00,,---,0.00,VWS V14.01,2013-01-08 07:13:00,
2013-01-08 01:18:00,25.9,22.6,30.24,SW,232,0.0,5.0,87,0.00,,---,0.00,VWS V14.01,2013-01-08 07:18:00,
2013-01-08 01:23:00,25.8,22.5,30.24,WSW,238,0.0,5.0,87,0.00,,---,0.00,VWS V14.01,2013-01-08 07:23:00,
2013-01-08 01:28:00,25.7,22.4,30.25,WSW,240,0.0,5.0,87,0.00,,---,0.00,VWS V14.01,2013-01-08 07:28:00,
2013-01-08 01:30:00,25.7,22.4,30.25,WSW,241,0.0,5.0,87,0.00,,---,0.00,VWS V14.01,2013-01-08 07:30:00,
2013-01-08 01:33:00,25.6,22.3,30.25,SW,233,2.0,3.0,87,0.00,,---,0.00,VWS V14.01,2013-01-08 07:33:00,
2013-01-08 01:38:00,25.4,22.1,30.25,SW,225,1.0,3.0,87,0.00,,---,0.00,VWS V14.01,2013-01-08 07:38:00,
2013-01-08 01:43:00,25.2,21.9,30.25,SW,214,1.0,3.0,87,0.00,,---,0.00,VWS V14.01,2013-01-08 07:43:00,
2013-01-08 01:48:00,25.0,22.0,30.25,WSW,239,2.0,3.0,88,0.00,,---,0.00,VWS V14.01,2013-01-08 07:48:00,
2013-01-08 01:53:00,25.0,22.0,30.25,SW,217,1.0,3.0,88,0.00,,---,0.00,VWS V14.01,2013-01-08 07:53:00,
2013-01-08 01:58:00,25.1,22.0,30.25,SW,222,0.0,3.0,88,0.00,,---,0.00,VWS V14.01,2013-01-08 07:58:00,
2013-01-08 02:00:00,25.1,22.0,30.25,SW,223,0.0,3.0,88,0.00,,---,0.00,VWS V14.01,2013-01-08 08:00:00,
2013-01-08 02:03:00,25.1,22.0,30.25,SW,221,1.0,2.0,88,0.00,,---,0.00,VWS V14.01,2013-01-08 08:03:00,
2013-01-08 02:08:00,25.1,22.0,30.26,SW,226,0.0,3.0,88,0.00,,---,0.00,VWS V14.01,2013-01-08 08:08:00,
2013-01-08 02:13:00,25.2,22.4,30.26,South,187,0.0,4.0,89,0.00,,---,0.00,VWS V14.01,2013-01-08 08:13:00,
2013-01-08 02:18:00,25.2,22.1,30.26,SW,233,0.0,4.0,88,0.00,,---,0.00,VWS V14.01,2013-01-08 08:18:00,
2013-01-08 02:23:00,25.1,22.0,30.26,SSW,212,1.0,4.0,88,0.00,,---,0.00,VWS V14.01,2013-01-08 08:23:00,
2013-01-08 02:28:00,25.2,22.1,30.26,SW,226,0.0,4.0,88,0.00,,---,0.00,VWS V14.01,2013-01-08 08:28:00,
2013-01-08 02:30:00,25.2,22.1,30.26,SW,226,1.0,4.0,88,0.00,,---,0.00,VWS V14.01,2013-01-08 08:30:00,
2013-01-08 02:33:00,25.2,22.1,30.25,SSW,210,0.0,4.0,88,0.00,,---,0.00,VWS V14.01,2013-01-08 08:33:00,
2013-01-08 02:38:00,25.2,22.1,30.25,SSW,210,2.0,4.0,88,0.00,,---,0.00,VWS V14.01,2013-01-08 08:38:00,
2013-01-08 02:43:00,25.0,21.7,30.25,SW,233,0.0,4.0,87,0.00,,---,0.00,VWS V14.01,2013-01-08 08:43:00,
2013-01-08 02:48:00,24.9,21.9,30.25,SW,233,2.0,4.0,88,0.00,,---,0.00,VWS V14.01,2013-01-08 08:48:00,
2013-01-08 02:53:00,24.8,21.8,30.25,SW,231,0.0,4.0,88,0.00,,---,0.00,VWS V14.01,2013-01-08 08:53:00,
2013-01-08 02:58:00,24.8,22.0,30.25,SW,222,0.0,4.0,89,0.00,,---,0.00,VWS V14.01,2013-01-08 08:58:00,
2013-01-08 03:00:00,24.8,22.0,30.25,SW,222,0.0,4.0,89,0.00,,---,0.00,VWS V14.01,2013-01-08 09:00:00,
2013-01-08 03:03:00,24.6,21.6,30.25,South,188,5.0,5.0,88,0.00,,---,0.00,VWS V14.01,2013-01-08 09:03:00,
2013-01-08 03:08:00,24.7,21.9,30.25,SSW,210,0.0,6.0,89,0.00,,---,0.00,VWS V14.01,2013-01-08 09:08:00,
2013-01-08 03:13:00,24.4,21.4,30.25,SSE,165,0.0,6.0,88,0.00,,---,0.00,VWS V14.01,2013-01-08 09:13:00,
2013-01-08 03:18:00,24.2,21.4,30.25,SW,222,0.0,6.0,89,0.00,,---,0.00,VWS V14.01,2013-01-08 09:18:00,
2013-01-08 03:23:00,24.1,21.6,30.25,WSW,246,1.0,6.0,90,0.00,,---,0.00,VWS V14.01,2013-01-08 09:23:00,
2013-01-08 03:28:00,24.0,21.2,30.25,SSW,197,0.0,6.0,89,0.00,,---,0.00,VWS V14.01,2013-01-08 09:28:00,
2013-01-08 03:30:00,24.0,21.2,30.25,SSW,197,0.0,6.0,89,0.00,,---,0.00,VWS V14.01,2013-01-08 09:30:00,
2013-01-08 03:33:00,24.1,21.6,30.25,SSW,210,2.0,3.0,90,0.00,,---,0.00,VWS V14.01,2013-01-08 09:33:00,
2013-01-08 03:38:00,24.0,21.5,30.25,SSE,150,1.0,3.0,90,0.00,,---,0.00,VWS V14.01,2013-01-08 09:38:00,
2013-01-08 03:43:00,23.9,21.4,30.25,South,188,0.0,3.0,90,0.00,,---,0.00,VWS V14.01,2013-01-08 09:43:00,
2013-01-08 03:48:00,23.9,21.4,30.25,SE,136,0.0,3.0,90,0.00,,---,0.00,VWS V14.01,2013-01-08 09:48:00,
2013-01-08 03:53:00,23.8,21.3,30.25,SE,137,0.0,3.0,90,0.00,,---,0.00,VWS V14.01,2013-01-08 09:53:00,
2013-01-08 03:58:00,23.6,21.1,30.25,WSW,243,0.0,3.0,90,0.00,,---,0.00,VWS V14.01,2013-01-08 09:58:00,
2013-01-08 04:00:00,23.6,21.1,30.25,WSW,243,0.0,3.0,90,0.00,,---,0.00,VWS V14.01,2013-01-08 10:00:00,
2013-01-08 04:03:00,23.4,20.9,30.25,SSW,211,0.0,1.0,90,0.00,,---,0.00,VWS V14.01,2013-01-08 10:03:00,
2013-01-08 04:08:00,23.3,21.1,30.25,SSE,160,0.0,1.0,91,0.00,,---,0.00,VWS V14.01,2013-01-08 10:08:00,
2013-01-08 04:13:00,23.0,20.8,30.25,SSE,160,0.0,1.0,91,0.00,,---,0.00,VWS V14.01,2013-01-08 10:13:00,
2013-01-08 04:18:00,23.0,20.8,30.25,SE,137,0.0,1.0,91,0.00,,---,0.00,VWS V14.01,2013-01-08 10:18:00,
2013-01-08 04:23:00,22.7,20.5,30.25,SE,136,0.0,1.0,91,0.00,,---,0.00,VWS V14.01,2013-01-08 10:23:00,
2013-01-08 04:28:00,22.6,20.6,30.25,SE,136,0.0,1.0,92,0.00,,---,0.00,VWS V14.01,2013-01-08 10:28:00,
2013-01-08 04:30:00,22.7,20.7,30.25,SE,136,0.0,1.0,92,0.00,,---,0.00,VWS V14.01,2013-01-08 10:30:00,
2013-01-08 04:33:00,22.5,20.5,30.25,SE,136,0.0,0.0,92,0.00,,---,0.00,VWS V14.01,2013-01-08 10:33:00,
2013-01-08 04:38:00,22.5,20.5,30.25,SSE,166,0.0,2.0,92,0.00,,---,0.00,VWS V14.01,2013-01-08 10:38:00,
2013-01-08 04:43:00,22.7,21.0,30.25,SSW,197,0.0,2.0,93,0.00,,---,0.00,VWS V14.01,2013-01-08 10:43:00,
2013-01-08 04:48:00,22.6,20.9,30.25,SSW,197,0.0,2.0,93,0.00,,---,0.00,VWS V14.01,2013-01-08 10:48:00,
2013-01-08 04:53:00,22.5,20.5,30.25,SSW,197,0.0,2.0,92,0.00,,---,0.00,VWS V14.01,2013-01-08 10:53:00,
2013-01-08 04:58:00,22.3,20.3,30.25,SSW,197,0.0,2.0,92,0.00,,---,0.00,VWS V14.01,2013-01-08 10:58:00,
2013-01-08 05:00:00,22.3,20.3,30.25,SSW,197,0.0,2.0,92,0.00,,---,0.00,VWS V14.01,2013-01-08 11:00:00,
2013-01-08 05:03:00,22.3,20.6,30.25,SSW,197,0.0,0.0,93,0.00,,---,0.00,VWS V14.01,2013-01-08 11:03:00,
2013-01-08 05:08:00,22.3,20.6,30.25,SSE,158,0.0,0.0,93,0.00,,---,0.00,VWS V14.01,2013-01-08 11:08:00,
2013-01-08 05:13:00,22.3,20.6,30.25,SW,222,0.0,1.0,93,0.00,,---,0.00,VWS V14.01,2013-01-08 11:13:00,
2013-01-08 05:18:00,22.4,20.7,30.25,SW,222,0.0,1.0,93,0.00,,---,0.00,VWS V14.01,2013-01-08 11:18:00,
2013-01-08 05:23:00,22.4,20.7,30.25,South,177,0.0,1.0,93,0.00,,---,0.00,VWS V14.01,2013-01-08 11:23:00,
2013-01-08 05:28:00,22.4,20.7,30.25,South,181,0.0,1.0,93,0.00,,---,0.00,VWS V14.01,2013-01-08 11:28:00,
2013-01-08 05:30:00,22.4,20.7,30.25,South,181,0.0,1.0,93,0.00,,---,0.00,VWS V14.01,2013-01-08 11:30:00,
2013-01-08 05:33:00,22.3,20.6,30.25,South,181,0.0,0.0,93,0.00,,---,0.00,VWS V14.01,2013-01-08 11:33:00,
2013-01-08 05:38:00,22.1,20.4,30.25,South,181,0.0,0.0,93,0.00,,---,0.00,VWS V14.01,2013-01-08 11:38:00,
2013-01-08 05:43:00,22.0,20.3,30.25,SSE,152,0.0,1.0,93,0.00,,---,0.00,VWS V14.01,2013-01-08 11:43:00,
2013-01-08 05:48:00,21.9,20.2,30.26,SSW,209,0.0,4.0,93,0.00,,---,0.00,VWS V14.01,2013-01-08 11:48:00,
2013-01-08 05:53:00,22.0,20.3,30.26,SSE,150,0.0,4.0,93,0.00,,---,0.00,VWS V14.01,2013-01-08 11:53:00,
2013-01-08 05:58:00,22.1,20.4,30.26,SSW,200,0.0,4.0,93,0.00,,---,0.00,VWS V14.01,2013-01-08 11:58:00,
2013-01-08 06:00:00,22.1,20.4,30.26,SSW,200,0.0,4.0,93,0.00,,---,0.00,VWS V14.01,2013-01-08 12:00:00,
2013-01-08 06:03:00,22.1,20.4,30.26,SSW,200,0.0,0.0,93,0.00,,---,0.00,VWS V14.01,2013-01-08 12:03:00,
2013-01-08 06:08:00,21.9,20.2,30.27,SSW,200,0.0,0.0,93,0.00,,---,0.00,VWS V14.01,2013-01-08 12:08:00,
2013-01-08 06:13:00,21.9,20.2,30.27,WSW,243,0.0,2.0,93,0.00,,---,0.00,VWS V14.01,2013-01-08 12:13:00,
2013-01-08 06:18:00,22.0,20.3,30.27,WSW,239,0.0,2.0,93,0.00,,---,0.00,VWS V14.01,2013-01-08 12:18:00,
2013-01-08 06:23:00,22.0,20.3,30.27,WSW,239,0.0,2.0,93,0.00,,---,0.00,VWS V14.01,2013-01-08 12:23:00,
2013-01-08 06:28:00,21.9,20.2,30.27,South,186,0.0,2.0,93,0.00,,---,0.00,VWS V14.01,2013-01-08 12:28:00,
2013-01-08 06:30:00,21.9,20.2,30.27,South,170,0.0,2.0,93,0.00,,---,0.00,VWS V14.01,2013-01-08 12:30:00,
2013-01-08 06:33:00,22.0,20.3,30.28,WSW,249,0.0,1.0,93,0.00,,---,0.00,VWS V14.01,2013-01-08 12:33:00,
2013-01-08 06:38:00,21.9,20.2,30.28,SE,131,0.0,1.0,93,0.00,,---,0.00,VWS V14.01,2013-01-08 12:38:00,
2013-01-08 06:43:00,21.8,20.1,30.28,South,187,0.0,1.0,93,0.00,,---,0.00,VWS V14.01,2013-01-08 12:43:00,
2013-01-08 06:48:00,21.7,20.0,30.28,South,187,0.0,1.0,93,0.00,,---,0.00,VWS V14.01,2013-01-08 12:48:00,
2013-01-08 06:53:00,21.5,19.8,30.28,SW,229,0.0,2.0,93,0.00,,---,0.00,VWS V14.01,2013-01-08 12:53:00,
2013-01-08 06:58:00,21.6,19.9,30.27,SSW,203,0.0,2.0,93,0.00,,---,0.00,VWS V14.01,2013-01-08 12:58:00,
2013-01-08 07:00:00,21.7,20.0,30.27,SSW,203,0.0,2.0,93,0.00,,---,0.00,VWS V14.01,2013-01-08 13:00:00,
2013-01-08 07:03:00,21.7,20.0,30.28,SSW,203,0.0,0.0,93,0.00,,---,0.00,VWS V14.01,2013-01-08 13:03:00,
2013-01-08 07:08:00,21.5,19.8,30.28,SE,135,0.0,1.0,93,0.00,,---,0.00,VWS V14.01,2013-01-08 13:08:00,
2013-01-08 07:13:00,21.4,19.7,30.29,SE,135,0.0,1.0,93,0.00,,---,0.00,VWS V14.01,2013-01-08 13:13:00,
2013-01-08 07:18:00,21.3,19.6,30.29,South,177,1.0,2.0,93,0.00,,---,0.00,VWS V14.01,2013-01-08 13:18:00,
2013-01-08 07:23:00,21.6,20.1,30.29,SSE,158,0.0,2.0,94,0.00,,---,0.00,VWS V14.01,2013-01-08 13:23:00,
2013-01-08 07:28:00,21.7,20.2,30.29,WSW,251,0.0,2.0,94,0.00,,---,0.00,VWS V14.01,2013-01-08 13:28:00,
2013-01-08 07:30:00,21.7,20.2,30.29,WSW,252,0.0,2.0,94,0.00,,---,0.00,VWS V14.01,2013-01-08 13:30:00,
2013-01-08 07:33:00,22.0,20.5,30.29,SW,221,0.0,3.0,94,0.00,,---,0.00,VWS V14.01,2013-01-08 13:33:00,
2013-01-08 07:38:00,22.6,21.4,30.29,SW,223,0.0,3.0,95,0.00,,---,0.00,VWS V14.01,2013-01-08 13:38:00,
2013-01-08 07:43:00,23.2,21.7,30.29,SW,222,0.0,3.0,94,0.00,,---,0.00,VWS V14.01,2013-01-08 13:43:00,
2013-01-08 07:48:00,23.6,21.9,30.29,SSE,167,0.0,3.0,93,0.00,,---,0.00,VWS V14.01,2013-01-08 13:48:00,
2013-01-08 07:53:00,24.2,22.5,30.30,SE,136,0.0,3.0,93,0.00,,---,0.00,VWS V14.01,2013-01-08 13:53:00,
2013-01-08 07:58:00,24.7,22.7,30.30,SSW,200,0.0,3.0,92,0.00,,---,0.00,VWS V14.01,2013-01-08 13:58:00,
2013-01-08 08:00:00,24.8,22.8,30.30,SSW,200,0.0,3.0,92,0.00,,---,0.00,VWS V14.01,2013-01-08 14:00:00,
2013-01-08 08:03:00,25.3,23.0,30.30,SW,229,0.0,1.0,91,0.00,,---,0.00,VWS V14.01,2013-01-08 14:03:00,
2013-01-08 08:08:00,25.7,22.9,30.30,SW,223,0.0,2.0,89,0.00,,---,0.00,VWS V14.01,2013-01-08 14:08:00,
2013-01-08 08:13:00,26.0,22.9,30.30,SW,220,0.0,2.0,88,0.00,,---,0.00,VWS V14.01,2013-01-08 14:13:00,
2013-01-08 08:18:00,26.3,23.2,30.30,SW,231,0.0,2.0,88,0.00,,---,0.00,VWS V14.01,2013-01-08 14:18:00,
2013-01-08 08:23:00,26.4,23.1,30.31,West,281,0.0,2.0,87,0.00,,---,0.00,VWS V14.01,2013-01-08 14:23:00,
2013-01-08 08:28:00,26.5,23.2,30.31,SSW,201,0.0,2.0,87,0.00,,---,0.00,VWS V14.01,2013-01-08 14:28:00,
2013-01-08 08:30:00,26.5,23.2,30.31,SSW,201,0.0,2.0,87,0.00,,---,0.00,VWS V14.01,2013-01-08 14:30:00,
2013-01-08 08:33:00,26.8,23.2,30.31,SSW,202,1.0,4.0,86,0.00,,---,0.00,VWS V14.01,2013-01-08 14:33:00,
2013-01-08 08:38:00,27.1,23.2,30.31,South,178,1.0,4.0,85,0.00,,---,0.00,VWS V14.01,2013-01-08 14:38:00,
2013-01-08 08:42:00,27.5,23.6,30.31,SW,221,2.0,4.0,85,0.00,,---,0.00,VWS V14.01,2013-01-08 14:42:00,
2013-01-08 08:47:00,27.8,23.6,30.31,South,188,3.0,5.0,84,0.00,,---,0.00,VWS V14.01,2013-01-08 14:47:00,
2013-01-08 08:52:00,28.2,24.0,30.32,SW,232,3.0,5.0,84,0.00,,---,0.00,VWS V14.01,2013-01-08 14:52:00,
2013-01-08 08:57:00,28.5,24.0,30.32,SSW,200,1.0,6.0,83,0.00,,---,0.00,VWS V14.01,2013-01-08 14:57:00,
2013-01-08 09:00:00,28.5,24.0,30.32,SSW,211,2.0,6.0,83,0.00,,---,0.00,VWS V14.01,2013-01-08 15:00:00,
2013-01-08 09:02:00,28.8,24.0,30.32,SW,214,2.0,5.0,82,0.00,,---,0.00,VWS V14.01,2013-01-08 15:02:00,
2013-01-08 09:07:00,29.1,24.3,30.32,SSW,207,3.0,8.0,82,0.00,,---,0.00,VWS V14.01,2013-01-08 15:07:00,
2013-01-08 09:12:00,29.4,24.3,30.32,WSW,243,1.0,8.0,81,0.00,,---,0.00,VWS V14.01,2013-01-08 15:12:00,
2013-01-08 09:17:00,29.6,24.5,30.32,SW,229,2.0,8.0,81,0.00,,---,0.00,VWS V14.01,2013-01-08 15:17:00,
2013-01-08 09:22:00,29.8,24.7,30.32,SW,217,0.0,8.0,81,0.00,,---,0.00,VWS V14.01,2013-01-08 15:22:00,
2013-01-08 09:27:00,30.2,24.8,30.32,SW,225,1.0,8.0,80,0.00,,---,0.00,VWS V14.01,2013-01-08 15:27:00,
2013-01-08 09:30:00,30.3,24.9,30.32,SSE,162,4.0,8.0,80,0.00,,---,0.00,VWS V14.01,2013-01-08 15:30:00,
2013-01-08 09:32:00,30.7,25.0,30.32,SW,233,2.0,7.0,79,0.00,,---,0.00,VWS V14.01,2013-01-08 15:32:00,
2013-01-08 09:37:00,31.1,25.4,30.32,South,181,1.0,7.0,79,0.00,,---,0.00,VWS V14.01,2013-01-08 15:37:00,
2013-01-08 09:42:00,31.5,25.4,30.32,SW,214,0.0,7.0,78,0.00,,---,0.00,VWS V14.01,2013-01-08 15:42:00,
2013-01-08 10:00:00,31.5,25.1,30.32,SW,225,2.0,7.0,77,0.00,,---,0.00,VWS V14.01,2013-01-08 16:00:00,
2013-01-08 10:28:00,34.7,26.6,30.32,SSE,163,4.0,4.0,72,0.00,,---,0.00,VWS V14.01,2013-01-08 16:28:00,
2013-01-08 10:30:00,34.7,26.6,30.32,SSE,163,4.0,4.0,72,0.00,,---,0.00,VWS V14.01,2013-01-08 16:30:00,
2013-01-08 10:33:00,34.9,26.8,30.32,SW,215,3.0,8.0,72,0.00,,---,0.00,VWS V14.01,2013-01-08 16:33:00,
2013-01-08 10:38:00,35.1,27.0,30.32,SSW,198,3.0,8.0,72,0.00,,---,0.00,VWS V14.01,2013-01-08 16:38:00,
2013-01-08 10:43:00,35.2,27.1,30.32,SW,219,3.0,8.0,72,0.00,,---,0.00,VWS V14.01,2013-01-08 16:43:00,
2013-01-08 10:48:00,34.9,27.1,30.31,SW,217,2.0,8.0,73,0.00,,---,0.00,VWS V14.01,2013-01-08 16:48:00,
2013-01-08 10:53:00,35.3,27.5,30.31,SE,146,2.0,8.0,73,0.00,,---,0.00,VWS V14.01,2013-01-08 16:53:00,
2013-01-08 10:58:00,35.8,27.3,30.31,SW,214,2.0,2.0,71,0.00,,---,0.00,VWS V14.01,2013-01-08 16:58:00,
2013-01-08 11:00:00,35.8,27.7,30.31,SW,214,2.0,8.0,72,0.00,,---,0.00,VWS V14.01,2013-01-08 17:00:00,
2013-01-08 11:03:00,36.1,27.6,30.30,SW,232,1.0,3.0,71,0.00,,---,0.00,VWS V14.01,2013-01-08 17:03:00,
2013-01-08 11:08:00,36.5,27.7,30.30,WSW,245,2.0,5.0,70,0.00,,---,0.00,VWS V14.01,2013-01-08 17:08:00,
2013-01-08 11:13:00,37.0,28.1,30.30,SW,215,4.0,5.0,70,0.00,,---,0.00,VWS V14.01,2013-01-08 17:13:00,
2013-01-08 11:18:00,37.3,28.4,30.30,SW,217,2.0,5.0,70,0.00,,---,0.00,VWS V14.01,2013-01-08 17:18:00,
2013-01-08 11:23:00,37.5,28.3,30.29,SE,129,0.0,5.0,69,0.00,,---,0.00,VWS V14.01,2013-01-08 17:23:00,
2013-01-08 11:28:00,37.9,28.3,30.29,SW,219,0.0,0.0,68,0.00,,---,0.00,VWS V14.01,2013-01-08 17:28:00,
2013-01-08 11:30:00,37.9,28.3,30.29,SW,219,0.0,5.0,68,0.00,,---,0.00,VWS V14.01,2013-01-08 17:30:00,
2013-01-08 11:33:00,38.3,28.3,30.29,SSE,162,0.0,3.0,67,0.00,,---,0.00,VWS V14.01,2013-01-08 17:33:00,
2013-01-08 11:38:00,38.4,28.8,30.28,East,84,2.0,3.0,68,0.00,,---,0.00,VWS V14.01,2013-01-08 17:38:00,
2013-01-08 11:43:00,38.8,28.8,30.28,SW,228,1.0,3.0,67,0.00,,---,0.00,VWS V14.01,2013-01-08 17:43:00,
2013-01-08 11:48:00,39.0,28.6,30.28,ESE,117,2.0,3.0,66,0.00,,---,0.00,VWS V14.01,2013-01-08 17:48:00,
2013-01-08 11:53:00,39.1,28.7,30.28,SW,236,1.0,3.0,66,0.00,,---,0.00,VWS V14.01,2013-01-08 17:53:00,
2013-01-08 11:58:00,39.3,28.9,30.28,SW,232,2.0,2.0,66,0.00,,---,0.00,VWS V14.01,2013-01-08 17:58:00,
2013-01-08 12:00:00,39.3,28.9,30.28,SW,232,1.0,3.0,66,0.00,,---,0.00,VWS V14.01,2013-01-08 18:00:00,
2013-01-08 12:03:00,39.1,28.7,30.28,South,188,1.0,3.0,66,0.00,,---,0.00,VWS V14.01,2013-01-08 18:03:00,
2013-01-08 12:08:00,39.3,28.9,30.28,SW,219,2.0,5.0,66,0.00,,---,0.00,VWS V14.01,2013-01-08 18:08:00,
2013-01-08 12:13:00,39.1,28.7,30.27,SSW,198,4.0,5.0,66,0.01,,---,0.01,VWS V14.01,2013-01-08 18:13:00,
2013-01-08 12:18:00,38.9,28.5,30.27,SW,228,3.0,5.0,66,0.01,,---,0.01,VWS V14.01,2013-01-08 18:18:00,
2013-01-08 12:23:00,38.7,28.3,30.27,SW,222,2.0,5.0,66,0.01,,---,0.01,VWS V14.01,2013-01-08 18:23:00,
2013-01-08 12:28:00,38.4,28.0,30.27,South,180,1.0,1.0,66,0.01,,---,0.01,VWS V14.01,2013-01-08 18:28:00,
2013-01-08 12:30:00,38.5,28.1,30.27,SSE,158,1.0,5.0,66,0.01,,---,0.01,VWS V14.01,2013-01-08 18:30:00,
2013-01-08 12:33:00,38.4,28.4,30.27,SSW,211,1.0,4.0,67,0.01,,---,0.01,VWS V14.01,2013-01-08 18:33:00,
2013-01-08 12:38:00,38.5,28.5,30.27,WSW,246,0.0,5.0,67,0.01,,---,0.01,VWS V14.01,2013-01-08 18:38:00,
2013-01-08 12:43:00,38.7,28.7,30.27,SSW,200,1.0,5.0,67,0.01,,---,0.01,VWS V14.01,2013-01-08 18:43:00,
2013-01-08 12:48:00,39.1,29.1,30.27,South,187,0.0,5.0,67,0.01,,---,0.01,VWS V14.01,2013-01-08 18:48:00,
2013-01-08 12:53:00,39.1,28.3,30.27,WSW,248,4.0,6.0,65,0.01,,---,0.01,VWS V14.01,2013-01-08 18:53:00,
2013-01-08 12:58:00,39.1,29.1,30.27,SW,225,2.0,2.0,67,0.01,,---,0.01,VWS V14.01,2013-01-08 18:58:00,
2013-01-08 13:00:00,39.1,29.1,30.27,SW,222,2.0,6.0,67,0.01,,---,0.01,VWS V14.01,2013-01-08 19:00:00,
2013-01-08 13:03:00,39.3,29.3,30.27,SW,222,0.0,5.0,67,0.01,,---,0.01,VWS V14.01,2013-01-08 19:03:00,
2013-01-08 13:08:00,39.6,28.8,30.27,SSW,194,2.0,6.0,65,0.01,,---,0.01,VWS V14.01,2013-01-08 19:08:00,
2013-01-08 13:13:00,39.5,28.7,30.26,SSE,156,2.0,7.0,65,0.01,,---,0.01,VWS V14.01,2013-01-08 19:13:00,
2013-01-08 13:18:00,39.1,28.7,30.27,South,186,2.0,7.0,66,0.01,,---,0.01,VWS V14.01,2013-01-08 19:18:00,
2013-01-08 13:23:00,39.1,29.1,30.27,SE,134,1.0,7.0,67,0.01,,---,0.01,VWS V14.01,2013-01-08 19:23:00,
2013-01-08 13:28:00,39.2,29.2,30.27,SW,219,3.0,5.0,67,0.00,,---,0.01,VWS V14.01,2013-01-08 19:28:00,
2013-01-08 13:30:00,39.2,29.2,30.27,SW,225,5.0,8.0,67,0.01,,---,0.01,VWS V14.01,2013-01-08 19:30:00,
2013-01-08 13:33:00,38.8,28.8,30.27,South,169,1.0,7.0,67,0.00,,---,0.01,VWS V14.01,2013-01-08 19:33:00,
2013-01-08 13:38:00,38.8,29.2,30.27,SSE,156,4.0,7.0,68,0.00,,---,0.01,VWS V14.01,2013-01-08 19:38:00,
2013-01-08 13:43:00,38.5,28.9,30.27,WSW,240,2.0,8.0,68,0.00,,---,0.01,VWS V14.01,2013-01-08 19:43:00,
2013-01-08 13:48:00,38.1,28.8,30.27,SSW,194,1.0,8.0,69,0.00,,---,0.01,VWS V14.01,2013-01-08 19:48:00,
2013-01-08 13:53:00,37.9,29.0,30.28,South,191,2.0,8.0,70,0.00,,---,0.01,VWS V14.01,2013-01-08 19:53:00,
2013-01-08 13:58:00,37.7,29.2,30.28,SE,146,3.0,3.0,71,0.00,,---,0.01,VWS V14.01,2013-01-08 19:58:00,
2013-01-08 14:00:00,37.7,29.2,30.28,ESE,114,2.0,8.0,71,0.00,,---,0.01,VWS V14.01,2013-01-08 20:00:00,
2013-01-08 14:03:00,37.6,29.1,30.28,SSW,203,3.0,8.0,71,0.00,,---,0.01,VWS V14.01,2013-01-08 20:03:00,
2013-01-08 14:08:00,37.3,28.8,30.28,South,174,1.0,8.0,71,0.00,,---,0.01,VWS V14.01,2013-01-08 20:08:00,
2013-01-08 14:13:00,37.1,28.6,30.28,South,191,2.0,8.0,71,0.00,,---,0.01,VWS V14.01,2013-01-08 20:13:00,
2013-01-08 14:18:00,36.9,28.7,30.28,SSW,207,1.0,8.0,72,0.00,,---,0.01,VWS V14.01,2013-01-08 20:18:00,
2013-01-08 14:23:00,36.8,28.6,30.28,SSW,207,2.0,9.0,72,0.00,,---,0.01,VWS V14.01,2013-01-08 20:23:00,
2013-01-08 14:28:00,36.8,28.6,30.28,SW,226,3.0,9.0,72,0.00,,---,0.01,VWS V14.01,2013-01-08 20:28:00,
2013-01-08 14:30:00,36.8,28.6,30.28,SW,226,3.0,9.0,72,0.00,,---,0.01,VWS V14.01,2013-01-08 20:30:00,
2013-01-08 14:33:00,36.7,28.9,30.28,SW,225,2.0,6.0,73,0.00,,---,0.01,VWS V14.01,2013-01-08 20:33:00,
2013-01-08 14:38:00,36.7,28.5,30.28,WSW,246,3.0,8.0,72,0.00,,---,0.01,VWS V14.01,2013-01-08 20:38:00,
2013-01-08 14:43:00,36.7,28.9,30.28,SSW,210,2.0,8.0,73,0.00,,---,0.01,VWS V14.01,2013-01-08 20:43:00,
2013-01-08 14:48:00,36.8,29.0,30.28,South,173,1.0,8.0,73,0.00,,---,0.01,VWS V14.01,2013-01-08 20:48:00,
2013-01-08 14:53:00,37.1,28.9,30.28,SSW,207,3.0,8.0,72,0.00,,---,0.01,VWS V14.01,2013-01-08 20:53:00,
2013-01-08 14:58:00,37.5,29.3,30.28,SSW,197,4.0,8.0,72,0.00,,---,0.01,VWS V14.01,2013-01-08 20:58:00,
2013-01-08 15:00:00,37.5,29.3,30.28,South,191,3.0,8.0,72,0.00,,---,0.01,VWS V14.01,2013-01-08 21:00:00,
2013-01-08 15:03:00,38.2,29.6,30.28,SSW,207,1.0,6.0,71,0.00,,---,0.01,VWS V14.01,2013-01-08 21:03:00,
2013-01-08 15:08:00,38.6,29.7,30.28,SSW,200,3.0,6.0,70,0.00,,---,0.01,VWS V14.01,2013-01-08 21:08:00,
2013-01-08 15:13:00,38.5,29.6,30.28,SSE,155,4.0,7.0,70,0.00,,---,0.01,VWS V14.01,2013-01-08 21:13:00,
2013-01-08 15:18:00,38.6,29.7,30.28,SSE,160,1.0,7.0,70,0.00,,---,0.01,VWS V14.01,2013-01-08 21:18:00,
2013-01-08 15:23:00,38.4,29.5,30.28,WSW,240,6.0,7.0,70,0.00,,---,0.01,VWS V14.01,2013-01-08 21:23:00,
2013-01-08 15:28:00,38.1,29.5,30.28,SW,226,1.0,7.0,71,0.00,,---,0.01,VWS V14.01,2013-01-08 21:28:00,
2013-01-08 15:30:00,38.1,29.5,30.28,SW,214,1.0,7.0,71,0.00,,---,0.01,VWS V14.01,2013-01-08 21:30:00,
2013-01-08 15:33:00,37.7,29.5,30.28,SW,219,6.0,7.0,72,0.00,,---,0.01,VWS V14.01,2013-01-08 21:33:00,
2013-01-08 15:38:00,37.5,29.6,30.28,SSW,198,5.0,7.0,73,0.00,,---,0.01,VWS V14.01,2013-01-08 21:38:00,
2013-01-08 15:43:00,37.3,29.5,30.28,SW,229,3.0,7.0,73,0.00,,---,0.01,VWS V14.01,2013-01-08 21:43:00,
2013-01-08 15:48:00,37.3,29.8,30.28,SSW,202,0.0,7.0,74,0.00,,---,0.01,VWS V14.01,2013-01-08 21:48:00,
2013-01-08 15:53:00,37.2,29.7,30.28,SW,219,2.0,7.0,74,0.00,,---,0.01,VWS V14.01,2013-01-08 21:53:00,
2013-01-08 15:58:00,36.9,29.4,30.28,SSW,203,2.0,7.0,74,0.00,,---,0.01,VWS V14.01,2013-01-08 21:58:00,
2013-01-08 16:00:00,36.9,29.4,30.28,SSW,210,1.0,7.0,74,0.00,,---,0.01,VWS V14.01,2013-01-08 22:00:00,
2013-01-08 16:03:00,36.6,29.4,30.28,SSW,198,6.0,7.0,75,0.00,,---,0.01,VWS V14.01,2013-01-08 22:03:00,
2013-01-08 16:08:00,36.3,29.5,30.28,WSW,242,0.0,7.0,76,0.00,,---,0.01,VWS V14.01,2013-01-08 22:08:00,
2013-01-08 16:13:00,36.0,29.2,30.28,SSW,203,6.0,7.0,76,0.00,,---,0.01,VWS V14.01,2013-01-08 22:13:00,
2013-01-08 16:18:00,35.7,29.2,30.28,South,186,0.0,7.0,77,0.00,,---,0.01,VWS V14.01,2013-01-08 22:18:00,
2013-01-08 16:23:00,35.4,29.2,30.28,SSW,200,0.0,7.0,78,0.00,,---,0.01,VWS V14.01,2013-01-08 22:23:00,
2013-01-08 16:28:00,35.2,29.0,30.28,SSW,207,0.0,7.0,78,0.00,,---,0.01,VWS V14.01,2013-01-08 22:28:00,
2013-01-08 16:30:00,35.2,29.0,30.28,SSW,207,0.0,7.0,78,0.00,,---,0.01,VWS V14.01,2013-01-08 22:30:00,
2013-01-08 16:33:00,34.9,29.1,30.28,SW,222,0.0,3.0,79,0.00,,---,0.01,VWS V14.01,2013-01-08 22:33:00,
2013-01-08 16:38:00,34.7,28.9,30.28,West,259,1.0,3.0,79,0.00,,---,0.01,VWS V14.01,2013-01-08 22:38:00,
2013-01-08 16:43:00,34.6,29.1,30.28,SSE,148,0.0,4.0,80,0.00,,---,0.01,VWS V14.01,2013-01-08 22:43:00,
2013-01-08 16:48:00,34.3,28.8,30.28,SW,215,0.0,4.0,80,0.00,,---,0.01,VWS V14.01,2013-01-08 22:48:00,
2013-01-08 16:53:00,34.0,28.8,30.28,SW,236,0.0,4.0,81,0.00,,---,0.01,VWS V14.01,2013-01-08 22:53:00,
2013-01-08 16:58:00,33.8,28.9,30.28,SW,220,2.0,4.0,82,0.00,,---,0.01,VWS V14.01,2013-01-08 22:58:00,
2013-01-08 17:00:00,33.8,28.9,30.28,SSW,197,1.0,4.0,82,0.00,,---,0.01,VWS V14.01,2013-01-08 23:00:00,
2013-01-08 17:03:00,33.7,28.8,30.28,SW,222,0.0,3.0,82,0.00,,---,0.01,VWS V14.01,2013-01-08 23:03:00,
2013-01-08 17:08:00,33.4,28.5,30.28,SW,229,1.0,3.0,82,0.00,,---,0.01,VWS V14.01,2013-01-08 23:08:00,
2013-01-08 17:13:00,33.1,28.5,30.28,SSW,193,1.0,3.0,83,0.00,,---,0.01,VWS V14.01,2013-01-08 23:13:00,
2013-01-08 17:18:00,32.9,28.6,30.29,South,172,0.0,3.0,84,0.00,,---,0.01,VWS V14.01,2013-01-08 23:18:00,
2013-01-08 17:23:00,32.7,28.1,30.28,South,172,0.0,3.0,83,0.00,,---,0.01,VWS V14.01,2013-01-08 23:23:00,
2013-01-08 17:28:00,32.2,27.9,30.28,South,172,0.0,3.0,84,0.00,,---,0.01,VWS V14.01,2013-01-08 23:28:00,
2013-01-08 17:30:00,32.2,27.9,30.28,South,172,0.0,3.0,84,0.00,,---,0.01,VWS V14.01,2013-01-08 23:30:00,
2013-01-08 17:33:00,31.9,27.9,30.27,South,172,0.0,0.0,85,0.00,,---,0.01,VWS V14.01,2013-01-08 23:33:00,
2013-01-08 17:38:00,31.5,27.5,30.27,South,172,0.0,0.0,85,0.00,,---,0.01,VWS V14.01,2013-01-08 23:38:00,
2013-01-08 17:43:00,31.1,27.4,30.27,SW,231,0.0,0.0,86,0.00,,---,0.01,VWS V14.01,2013-01-08 23:43:00,
2013-01-08 17:48:00,30.9,27.2,30.28,SW,231,0.0,0.0,86,0.00,,---,0.01,VWS V14.01,2013-01-08 23:48:00,
2013-01-08 17:53:00,30.3,26.9,30.28,SSE,147,0.0,0.0,87,0.00,,---,0.01,VWS V14.01,2013-01-08 23:53:00,
2013-01-08 17:58:00,30.2,27.4,30.27,SE,134,0.0,1.0,89,0.00,,---,0.01,VWS V14.01,2013-01-08 23:58:00,
2013-01-08 18:00:00,30.2,27.4,30.27,SE,135,0.0,1.0,89,0.00,,---,0.01,VWS V14.01,2013-01-09 00:00:00,
2013-01-08 18:03:00,30.2,27.4,30.27,West,267,0.0,1.0,89,0.00,,---,0.01,VWS V14.01,2013-01-09 00:03:00,
2013-01-08 18:08:00,30.2,27.4,30.27,SSE,158,0.0,1.0,89,0.00,,---,0.01,VWS V14.01,2013-01-09 00:08:00,
2013-01-08 18:13:00,29.8,26.7,30.28,SSE,158,0.0,1.0,88,0.00,,---,0.01,VWS V14.01,2013-01-09 00:13:00,
2013-01-08 18:18:00,29.6,27.0,30.28,WSW,256,0.0,1.0,90,0.00,,---,0.01,VWS V14.01,2013-01-09 00:18:00,
2013-01-08 18:23:00,29.7,27.1,30.28,West,264,0.0,1.0,90,0.00,,---,0.01,VWS V14.01,2013-01-09 00:23:00,
2013-01-08 18:28:00,29.6,27.0,30.27,West,264,0.0,1.0,90,0.00,,---,0.01,VWS V14.01,2013-01-09 00:28:00,
2013-01-08 18:30:00,29.6,27.0,30.27,West,264,0.0,1.0,90,0.00,,---,0.01,VWS V14.01,2013-01-09 00:30:00,
2013-01-08 18:33:00,29.3,26.5,30.28,West,264,0.0,0.0,89,0.00,,---,0.01,VWS V14.01,2013-01-09 00:33:00,
2013-01-08 18:38:00,29.4,27.1,30.28,SSW,195,1.0,3.0,91,0.00,,---,0.01,VWS V14.01,2013-01-09 00:38:00,
2013-01-08 18:43:00,29.6,27.3,30.28,WSW,252,1.0,3.0,91,0.00,,---,0.01,VWS V14.01,2013-01-09 00:43:00,
2013-01-08 18:48:00,30.0,27.7,30.27,ESE,113,0.0,3.0,91,0.00,,---,0.01,VWS V14.01,2013-01-09 00:48:00,
2013-01-08 18:53:00,30.4,27.8,30.27,SW,217,0.0,3.0,90,0.00,,---,0.01,VWS V14.01,2013-01-09 00:53:00,
2013-01-08 18:58:00,30.7,28.1,30.28,SW,221,0.0,3.0,90,0.00,,---,0.01,VWS V14.01,2013-01-09 00:58:00,
2013-01-08 19:00:00,30.7,28.1,30.28,SW,221,0.0,3.0,90,0.00,,---,0.01,VWS V14.01,2013-01-09 01:00:00,
2013-01-08 19:03:00,30.8,28.0,30.28,ESE,117,0.0,2.0,89,0.00,,---,0.01,VWS V14.01,2013-01-09 01:03:00,
2013-01-08 19:08:00,30.7,27.9,30.28,SW,226,0.0,2.0,89,0.00,,---,0.01,VWS V14.01,2013-01-09 01:08:00,
2013-01-08 19:13:00,30.6,27.5,30.28,SW,224,0.0,2.0,88,0.00,,---,0.01,VWS V14.01,2013-01-09 01:13:00,
2013-01-08 19:18:00,30.5,27.4,30.28,SSW,201,0.0,2.0,88,0.00,,---,0.01,VWS V14.01,2013-01-09 01:18:00,
2013-01-08 19:23:00,30.2,27.1,30.28,SSW,201,0.0,2.0,88,0.00,,---,0.01,VWS V14.01,2013-01-09 01:23:00,
2013-01-08 19:28:00,30.3,27.5,30.27,SSW,202,0.0,2.0,89,0.00,,---,0.01,VWS V14.01,2013-01-09 01:28:00,
2013-01-08 19:30:00,30.3,27.5,30.27,SSW,201,0.0,2.0,89,0.00,,---,0.01,VWS V14.01,2013-01-09 01:30:00,
2013-01-08 19:33:00,30.4,27.5,30.27,SSE,150,0.0,0.0,89,0.00,,---,0.01,VWS V14.01,2013-01-09 01:33:00,
2013-01-08 19:38:00,30.3,27.5,30.26,SSE,151,0.0,0.0,89,0.00,,---,0.01,VWS V14.01,2013-01-09 01:38:00,
2013-01-08 19:43:00,30.1,27.3,30.26,SSE,150,0.0,0.0,89,0.00,,---,0.01,VWS V14.01,2013-01-09 01:43:00,
2013-01-08 19:48:00,29.7,26.9,30.25,SSE,150,0.0,0.0,89,0.00,,---,0.01,VWS V14.01,2013-01-09 01:48:00,
2013-01-08 19:53:00,29.3,26.5,30.25,SSE,150,0.0,0.0,89,0.00,,---,0.01,VWS V14.01,2013-01-09 01:53:00,
2013-01-08 19:58:00,28.7,25.9,30.25,SSE,150,0.0,0.0,89,0.00,,---,0.01,VWS V14.01,2013-01-09 01:58:00,
2013-01-08 20:00:00,28.6,25.8,30.25,SSE,150,0.0,0.0,89,0.00,,---,0.01,VWS V14.01,2013-01-09 02:00:00,
2013-01-08 20:03:00,28.4,25.9,30.25,ESE,108,1.0,1.0,90,0.00,,---,0.01,VWS V14.01,2013-01-09 02:03:00,
2013-01-08 20:08:00,28.2,25.9,30.25,SE,132,1.0,1.0,91,0.00,,---,0.01,VWS V14.01,2013-01-09 02:08:00,
2013-01-08 20:13:00,28.2,25.9,30.25,SE,133,0.0,1.0,91,0.00,,---,0.01,VWS V14.01,2013-01-09 02:13:00,
2013-01-08 20:18:00,28.5,26.5,30.25,SSE,159,0.0,1.0,92,0.00,,---,0.01,VWS V14.01,2013-01-09 02:18:00,
2013-01-08 20:23:00,28.7,26.7,30.25,SSE,159,0.0,1.0,92,0.00,,---,0.01,VWS V14.01,2013-01-09 02:23:00,
2013-01-08 20:28:00,28.8,26.8,30.24,SSE,159,0.0,1.0,92,0.00,,---,0.01,VWS V14.01,2013-01-09 02:28:00,
2013-01-08 20:30:00,28.8,26.8,30.24,SSE,160,0.0,1.0,92,0.00,,---,0.01,VWS V14.01,2013-01-09 02:30:00,
2013-01-08 20:33:00,28.9,26.9,30.24,SE,127,0.0,0.0,92,0.00,,---,0.01,VWS V14.01,2013-01-09 02:33:00,
2013-01-08 20:38:00,28.8,26.5,30.24,SE,127,0.0,1.0,91,0.00,,---,0.01,VWS V14.01,2013-01-09 02:38:00,
2013-01-08 20:43:00,28.8,26.8,30.24,SE,127,0.0,1.0,92,0.00,,---,0.01,VWS V14.01,2013-01-09 02:43:00,
2013-01-08 20:48:00,28.8,26.5,30.25,SE,127,0.0,1.0,91,0.00,,---,0.01,VWS V14.01,2013-01-09 02:48:00,
2013-01-08 20:53:00,28.1,25.8,30.25,SE,127,0.0,1.0,91,0.00,,---,0.01,VWS V14.01,2013-01-09 02:53:00,
2013-01-08 20:58:00,27.7,25.4,30.25,SE,127,0.0,1.0,91,0.00,,---,0.01,VWS V14.01,2013-01-09 02:58:00,
2013-01-08 21:00:00,27.6,25.3,30.25,SE,127,0.0,1.0,91,0.00,,---,0.01,VWS V14.01,2013-01-09 03:00:00,
2013-01-08 21:03:00,27.0,24.7,30.25,SE,127,0.0,0.0,91,0.00,,---,0.01,VWS V14.01,2013-01-09 03:03:00,
2013-01-08 21:08:00,26.3,24.0,30.25,SE,127,0.0,0.0,91,0.00,,---,0.01,VWS V14.01,2013-01-09 03:08:00,
2013-01-08 21:13:00,26.7,25.0,30.24,SE,127,0.0,0.0,93,0.00,,---,0.01,VWS V14.01,2013-01-09 03:13:00,
2013-01-08 21:18:00,27.1,25.6,30.24,SE,127,0.0,0.0,94,0.00,,---,0.01,VWS V14.01,2013-01-09 03:18:00,
2013-01-08 21:23:00,27.1,25.6,30.24,SE,127,0.0,0.0,94,0.00,,---,0.01,VWS V14.01,2013-01-09 03:23:00,
2013-01-08 21:28:00,27.1,25.6,30.24,SE,127,0.0,0.0,94,0.00,,---,0.01,VWS V14.01,2013-01-09 03:28:00,
2013-01-08 21:30:00,27.1,25.6,30.24,SE,127,0.0,0.0,94,0.00,,---,0.01,VWS V14.01,2013-01-09 03:30:00,
2013-01-08 21:33:00,27.1,25.6,30.24,SE,127,0.0,0.0,94,0.00,,---,0.01,VWS V14.01,2013-01-09 03:33:00,
2013-01-08 21:38:00,26.9,25.4,30.23,SE,127,0.0,0.0,94,0.00,,---,0.01,VWS V14.01,2013-01-09 03:38:00,
2013-01-08 21:43:00,26.8,25.3,30.24,SE,127,0.0,0.0,94,0.00,,---,0.01,VWS V14.01,2013-01-09 03:43:00,
2013-01-08 21:48:00,26.3,24.6,30.24,SE,127,0.0,0.0,93,0.00,,---,0.01,VWS V14.01,2013-01-09 03:48:00,
2013-01-08 21:53:00,26.0,24.5,30.24,SE,127,0.0,0.0,94,0.00,,---,0.01,VWS V14.01,2013-01-09 03:53:00,
2013-01-08 21:58:00,26.6,25.4,30.24,East,96,0.0,2.0,95,0.00,,---,0.01,VWS V14.01,2013-01-09 03:58:00,
2013-01-08 22:00:00,26.7,25.5,30.24,East,96,0.0,2.0,95,0.00,,---,0.01,VWS V14.01,2013-01-09 04:00:00,
2013-01-08 22:03:00,27.3,26.3,30.23,East,96,0.0,0.0,96,0.00,,---,0.01,VWS V14.01,2013-01-09 04:03:00,
2013-01-08 22:08:00,27.6,26.6,30.23,East,96,0.0,0.0,96,0.00,,---,0.01,VWS V14.01,2013-01-09 04:08:00,
2013-01-08 22:13:00,28.1,27.1,30.23,SE,129,0.0,2.0,96,0.00,,---,0.01,VWS V14.01,2013-01-09 04:13:00,
2013-01-08 22:18:00,28.3,27.0,30.23,SE,129,0.0,2.0,95,0.00,,---,0.01,VWS V14.01,2013-01-09 04:18:00,
2013-01-08 22:23:00,28.1,26.6,30.23,SE,128,0.0,2.0,94,0.00,,---,0.01,VWS V14.01,2013-01-09 04:23:00,
2013-01-08 22:27:00,27.8,26.3,30.23,SE,129,0.0,2.0,94,0.00,,---,0.01,VWS V14.01,2013-01-09 04:27:00,
2013-01-08 22:30:00,27.7,26.2,30.23,SE,129,0.0,2.0,94,0.00,,---,0.01,VWS V14.01,2013-01-09 04:30:00,
2013-01-08 22:32:00,27.5,26.0,30.23,SE,129,0.0,0.0,94,0.00,,---,0.01,VWS V14.01,2013-01-09 04:32:00,
2013-01-08 22:37:00,27.5,26.0,30.23,SE,128,0.0,0.0,94,0.00,,---,0.01,VWS V14.01,2013-01-09 04:37:00,
2013-01-08 22:42:00,27.3,25.8,30.22,SE,129,0.0,0.0,94,0.00,,---,0.01,VWS V14.01,2013-01-09 04:42:00,
2013-01-08 22:47:00,27.0,25.5,30.22,SE,129,0.0,0.0,94,0.00,,---,0.01,VWS V14.01,2013-01-09 04:47:00,
2013-01-08 22:52:00,27.0,25.8,30.22,SE,128,0.0,0.0,95,0.00,,---,0.01,VWS V14.01,2013-01-09 04:52:00,
2013-01-08 22:57:00,26.7,25.2,30.22,SE,128,0.0,0.0,94,0.00,,---,0.01,VWS V14.01,2013-01-09 04:57:00,
2013-01-08 23:00:00,26.5,25.0,30.22,SE,128,0.0,0.0,94,0.00,,---,0.00,VWS V14.01,2013-01-09 05:00:00,
2013-01-08 23:01:00,26.5,25.0,30.22,SE,128,0.0,0.0,94,0.00,,---,0.00,VWS V14.01,2013-01-09 05:01:00,
2013-01-08 23:03:00,26.3,24.8,30.22,SE,129,0.0,0.0,94,0.00,,---,0.00,VWS V14.01,2013-01-09 05:03:00,
2013-01-08 23:08:00,25.9,24.4,30.22,SE,128,0.0,0.0,94,0.00,,---,0.00,VWS V14.01,2013-01-09 05:08:00,
2013-01-08 23:13:00,25.9,24.7,30.23,SE,128,0.0,0.0,95,0.00,,---,0.00,VWS V14.01,2013-01-09 05:13:00,
2013-01-08 23:18:00,25.9,24.7,30.23,WNW,284,0.0,3.0,95,0.00,,---,0.00,VWS V14.01,2013-01-09 05:18:00,
2013-01-08 23:23:00,25.7,24.5,30.23,WNW,284,0.0,3.0,95,0.00,,---,0.00,VWS V14.01,2013-01-09 05:23:00,
2013-01-08 23:28:00,25.5,24.3,30.23,WSW,246,0.0,3.0,95,0.00,,---,0.00,VWS V14.01,2013-01-09 05:28:00,
2013-01-08 23:30:00,25.4,24.2,30.23,WSW,246,0.0,3.0,95,0.00,,---,0.00,VWS V14.01,2013-01-09 05:30:00,
2013-01-08 23:33:00,25.2,24.0,30.22,WSW,246,0.0,0.0,95,0.00,,---,0.00,VWS V14.01,2013-01-09 05:33:00,
2013-01-08 23:38:00,25.5,24.5,30.22,SSW,212,0.0,2.0,96,0.00,,---,0.00,VWS V14.01,2013-01-09 05:38:00,
2013-01-08 23:43:00,26.2,25.5,30.22,South,172,0.0,2.0,97,0.00,,---,0.00,VWS V14.01,2013-01-09 05:43:00,
2013-01-08 23:48:00,26.7,26.0,30.22,SE,134,0.0,2.0,97,0.00,,---,0.00,VWS V14.01,2013-01-09 05:48:00,
2013-01-08 23:53:00,27.2,26.5,30.22,SSE,160,0.0,3.0,97,0.00,,---,0.00,VWS V14.01,2013-01-09 05:53:00,
2013-01-08 23:58:00,27.9,27.2,30.22,ESE,107,0.0,3.0,97,0.00,,---,0.00,VWS V14.01,2013-01-09 05:58:00,